Time;durP1;ratioP1;P1;durP2;ratioP2;P2;SDS_P1;SDS_P2;PMS_P1;PMS_P2;Temp;Humidity;BMP_temperature;BMP_pressure;BME280_temperature;BME280_humidity;BME280_pressure;Samples;Min_cycle;Max_cycle;Signal;HPM_P1;HPM_P2
2022/05/10 00:00:38;;;;;;;9.30;5.72;;;12.90;99.90;;;;;;5025501;28;20033;-78
2022/05/10 00:03:07;;;;;;;11.43;5.90;;;12.80;99.90;;;;;;5026805;28;20054;-78
2022/05/10 00:05:41;;;;;;;9.60;5.47;;;12.80;99.90;;;;;;5026765;28;20046;-77
2022/05/10 00:08:10;;;;;;;9.70;7.00;;;12.70;99.90;;;;;;5026104;28;20484;-79
2022/05/10 00:10:36;;;;;;;9.02;5.53;;;12.70;99.90;;;;;;5024816;28;20484;-77
2022/05/10 00:13:03;;;;;;;14.32;5.38;;;12.80;99.90;;;;;;5026273;28;20069;-78
2022/05/10 00:15:28;;;;;;;9.95;6.68;;;12.80;99.90;;;;;;5026298;28;20535;-78
2022/05/10 00:17:54;;;;;;;10.07;6.03;;;12.80;99.90;;;;;;5026308;28;20160;-78
2022/05/10 00:20:23;;;;;;;10.88;6.30;;;12.80;99.90;;;;;;5024286;28;20057;-80
2022/05/10 00:22:49;;;;;;;8.48;5.25;;;12.80;99.90;;;;;;5025182;28;20442;-77
2022/05/10 00:25:18;;;;;;;10.05;5.85;;;12.70;99.90;;;;;;5024361;28;20049;-79
2022/05/10 00:27:44;;;;;;;9.63;5.88;;;12.80;99.90;;;;;;5025227;28;20045;-79
2022/05/10 00:30:10;;;;;;;9.50;6.40;;;12.70;99.90;;;;;;5025179;28;20072;-79
2022/05/10 00:32:38;;;;;;;10.65;5.28;;;12.70;99.90;;;;;;5024436;28;20153;-79
2022/05/10 00:35:10;;;;;;;10.30;5.70;;;12.70;99.90;;;;;;5024223;28;20456;-79
2022/05/10 00:37:36;;;;;;;13.15;6.25;;;12.60;99.90;;;;;;5025483;28;20045;-78
2022/05/10 00:40:02;;;;;;;12.20;6.15;;;12.60;99.90;;;;;;5024074;28;20095;-78
2022/05/10 00:42:33;;;;;;;10.65;5.78;;;12.60;99.90;;;;;;5026850;28;20495;-79
2022/05/10 00:45:01;;;;;;;12.15;6.60;;;12.60;99.90;;;;;;5026633;28;20041;-79
2022/05/10 00:47:39;;;;;;;11.48;6.28;;;12.60;99.90;;;;;;5026824;28;20084;-79
2022/05/10 00:50:22;;;;;;;9.50;6.18;;;12.50;99.90;;;;;;5024595;28;20041;-79
2022/05/10 00:52:57;;;;;;;11.45;5.80;;;12.50;99.90;;;;;;5026623;28;20431;-79
2022/05/10 00:55:29;;;;;;;11.23;6.50;;;12.40;99.90;;;;;;5025306;28;20049;-78
2022/05/10 00:58:04;;;;;;;11.60;6.65;;;12.40;99.90;;;;;;5025835;28;20045;-79
2022/05/10 01:00:31;;;;;;;10.65;5.88;;;12.40;99.90;;;;;;5025353;28;20496;-79
2022/05/10 01:03:25;;;;;;;7.70;5.63;;;12.40;99.90;;;;;;5025958;28;20041;-79
2022/05/10 01:06:00;;;;;;;11.35;6.80;;;12.30;99.90;;;;;;5026628;28;20037;-79
2022/05/10 01:08:31;;;;;;;11.95;6.70;;;12.30;99.90;;;;;;5026511;28;20438;-79
2022/05/10 01:10:59;;;;;;;12.02;6.60;;;12.30;99.90;;;;;;5025089;28;20099;-79
2022/05/10 01:13:34;;;;;;;12.70;7.15;;;12.30;99.90;;;;;;5026679;28;20041;-79
2022/05/10 01:16:09;;;;;;;11.63;6.20;;;12.30;99.90;;;;;;5026360;28;20081;-79
2022/05/10 01:18:36;;;;;;;16.73;6.70;;;12.30;99.90;;;;;;5024605;28;20072;-79
2022/05/10 01:21:44;;;;;;;9.50;6.28;;;12.30;99.90;;;;;;5025552;28;20573;-79
2022/05/10 01:24:31;;;;;;;11.50;6.85;;;12.40;99.90;;;;;;5025241;28;20141;-79
2022/05/10 01:27:36;;;;;;;11.50;6.72;;;12.40;99.90;;;;;;5024876;28;20080;-79
2022/05/10 01:30:19;;;;;;;10.57;6.35;;;12.40;99.90;;;;;;5023253;28;20048;-80
2022/05/10 01:36:04;;;;;;;13.07;6.03;;;12.40;99.90;;;;;;5021175;28;20072;-79
2022/05/10 01:38:34;;;;;;;11.05;6.13;;;12.40;99.90;;;;;;5024682;28;20542;-79
2022/05/10 01:41:13;;;;;;;10.18;6.72;;;12.40;99.90;;;;;;5024302;28;20056;-79
2022/05/10 01:43:45;;;;;;;8.38;6.25;;;12.40;99.90;;;;;;5025607;28;20547;-78
2022/05/10 01:46:19;;;;;;;13.15;7.03;;;12.30;99.90;;;;;;5024389;28;20053;-79
2022/05/10 01:48:49;;;;;;;11.18;6.75;;;12.30;99.90;;;;;;5024674;28;20052;-79
2022/05/10 01:51:31;;;;;;;9.32;6.68;;;12.30;99.90;;;;;;5023023;28;20578;-79
2022/05/10 01:53:57;;;;;;;12.50;6.97;;;12.30;99.90;;;;;;5021404;28;20045;-79
2022/05/10 01:56:26;;;;;;;12.68;6.45;;;12.40;99.90;;;;;;5022115;28;20062;-79
2022/05/10 01:58:53;;;;;;;11.93;7.03;;;12.40;99.90;;;;;;5023262;28;20065;-79
2022/05/10 02:01:38;;;;;;;15.40;7.15;;;12.40;99.90;;;;;;5022239;28;20079;-78
2022/05/10 02:04:14;;;;;;;14.15;7.15;;;12.40;99.90;;;;;;5022922;28;20073;-78
2022/05/10 02:06:59;;;;;;;12.93;5.80;;;12.40;99.90;;;;;;5022963;28;20115;-78
2022/05/10 02:10:02;;;;;;;12.13;6.82;;;12.40;99.90;;;;;;5024254;28;20049;-78
2022/05/10 02:12:39;;;;;;;12.05;6.85;;;12.40;99.90;;;;;;5024467;28;20065;-78
2022/05/10 02:15:24;;;;;;;9.73;6.13;;;12.50;99.90;;;;;;5039287;28;20073;-79
2022/05/10 02:17:59;;;;;;;10.23;5.70;;;12.50;99.90;;;;;;5024978;28;20045;-79
2022/05/10 02:20:29;;;;;;;13.05;5.93;;;12.40;99.90;;;;;;5022669;28;20453;-78
2022/05/10 02:23:03;;;;;;;10.90;5.93;;;12.40;99.90;;;;;;5024129;28;20128;-78
2022/05/10 02:25:37;;;;;;;8.77;6.03;;;12.40;99.90;;;;;;5023582;28;20052;-78
2022/05/10 02:28:35;;;;;;;9.85;6.70;;;12.40;99.90;;;;;;5021754;28;20049;-79
2022/05/10 02:31:10;;;;;;;8.70;5.15;;;12.40;99.90;;;;;;5024509;28;20045;-79
2022/05/10 02:33:37;;;;;;;10.63;5.80;;;12.30;99.90;;;;;;5023265;28;20423;-78
2022/05/10 02:36:03;;;;;;;10.30;6.20;;;12.40;99.90;;;;;;5022404;28;20492;-78
2022/05/10 02:38:35;;;;;;;11.52;5.82;;;12.40;99.90;;;;;;5023313;28;20041;-78
2022/05/10 02:41:04;;;;;;;9.70;4.95;;;12.40;99.90;;;;;;5023852;28;20077;-78
2022/05/10 02:43:34;;;;;;;10.00;6.50;;;12.40;99.90;;;;;;5023769;28;20041;-78
2022/05/10 02:46:00;;;;;;;7.35;5.63;;;12.30;99.90;;;;;;5024514;28;20488;-79
2022/05/10 02:48:35;;;;;;;17.60;6.10;;;12.40;99.90;;;;;;5024486;28;20052;-78
2022/05/10 02:51:01;;;;;;;11.85;6.07;;;12.40;99.90;;;;;;5021601;28;20049;-79
2022/05/10 02:53:27;;;;;;;12.40;6.35;;;12.30;99.90;;;;;;5023335;28;20503;-78
2022/05/10 02:55:57;;;;;;;8.43;5.22;;;12.40;99.90;;;;;;5023786;28;20042;-78
2022/05/10 02:58:40;;;;;;;8.77;5.40;;;12.30;99.90;;;;;;5023052;28;20053;-78
2022/05/10 03:01:25;;;;;;;16.70;6.30;;;12.40;99.90;;;;;;5022889;28;20084;-78
2022/05/10 03:03:51;;;;;;;7.80;5.72;;;12.30;99.90;;;;;;5024734;28;20043;-78
2022/05/10 03:06:19;;;;;;;12.60;5.95;;;12.30;99.90;;;;;;5030871;28;20045;-78
2022/05/10 03:08:48;;;;;;;10.93;5.65;;;12.30;99.90;;;;;;5031637;28;20044;-78
2022/05/10 03:11:14;;;;;;;21.27;5.75;;;12.20;99.90;;;;;;5029063;28;20081;-79
2022/05/10 03:13:40;;;;;;;15.73;5.82;;;12.20;99.90;;;;;;5030638;28;20387;-78
2022/05/10 03:16:06;;;;;;;9.93;5.30;;;12.20;99.90;;;;;;5028852;28;20060;-78
2022/05/10 03:18:32;;;;;;;13.93;5.95;;;12.20;99.90;;;;;;5031287;28;20033;-78
2022/05/10 03:20:57;;;;;;;10.32;5.45;;;12.20;99.90;;;;;;5027238;28;20669;-78
2022/05/10 03:23:23;;;;;;;11.05;5.90;;;12.20;99.90;;;;;;5030182;28;20065;-78
2022/05/10 03:25:49;;;;;;;11.30;6.00;;;12.20;99.90;;;;;;5029260;28;20041;-78
2022/05/10 03:28:14;;;;;;;8.95;6.20;;;12.10;99.90;;;;;;5029103;28;20052;-79
2022/05/10 03:30:43;;;;;;;7.50;6.10;;;12.10;99.90;;;;;;5030939;28;20052;-77
2022/05/10 03:33:08;;;;;;;14.60;6.07;;;12.10;99.90;;;;;;5029148;28;20041;-78
2022/05/10 03:35:34;;;;;;;6.55;5.07;;;12.10;99.90;;;;;;5030057;28;20041;-78
2022/05/10 03:38:01;;;;;;;9.18;6.05;;;12.10;99.90;;;;;;5029955;28;20038;-78
2022/05/10 03:40:26;;;;;;;16.92;6.50;;;12.20;99.90;;;;;;5030883;28;20049;-79
2022/05/10 03:42:54;;;;;;;6.53;5.57;;;12.10;99.90;;;;;;5029335;28;20099;-78
2022/05/10 03:45:21;;;;;;;9.30;5.90;;;12.20;99.90;;;;;;5029720;28;20099;-78
2022/05/10 03:47:48;;;;;;;10.85;6.47;;;12.20;99.90;;;;;;5030856;28;20034;-79
2022/05/10 03:50:16;;;;;;;8.15;6.25;;;12.20;99.90;;;;;;5028387;28;20054;-79
2022/05/10 03:52:42;;;;;;;7.00;5.93;;;12.20;99.90;;;;;;5030375;28;20404;-78
2022/05/10 03:55:10;;;;;;;9.60;6.45;;;12.30;99.90;;;;;;5030395;28;20048;-78
2022/05/10 03:57:36;;;;;;;7.30;6.07;;;12.20;99.90;;;;;;5028159;28;20045;-78
2022/05/10 04:00:05;;;;;;;17.42;6.72;;;12.20;99.90;;;;;;5028408;28;20446;-79
2022/05/10 04:02:31;;;;;;;11.57;5.97;;;12.30;99.90;;;;;;5027345;28;20040;-79
2022/05/10 04:04:56;;;;;;;9.77;5.93;;;12.30;99.90;;;;;;5031213;28;20498;-79
2022/05/10 04:07:22;;;;;;;9.18;6.03;;;13.10;99.90;;;;;;5029516;28;20471;-79
2022/05/10 04:09:48;;;;;;;10.43;5.90;;;12.30;99.90;;;;;;5030531;28;20332;-78
2022/05/10 04:12:14;;;;;;;14.45;7.05;;;12.30;99.90;;;;;;5028606;28;20492;-78
2022/05/10 04:14:39;;;;;;;7.47;6.13;;;12.40;99.90;;;;;;5028792;28;20041;-79
2022/05/10 04:17:05;;;;;;;8.88;6.82;;;12.40;99.90;;;;;;5026755;28;20049;-78
2022/05/10 04:19:31;;;;;;;13.15;6.47;;;12.40;99.90;;;;;;5025771;28;20068;-78
2022/05/10 04:21:57;;;;;;;14.07;6.90;;;12.40;99.90;;;;;;5026869;28;20048;-79
2022/05/10 04:24:22;;;;;;;18.15;7.40;;;12.50;99.90;;;;;;5025169;28;20045;-78
2022/05/10 04:26:48;;;;;;;10.88;6.05;;;12.50;99.90;;;;;;5025744;28;20468;-78
2022/05/10 04:29:14;;;;;;;15.45;7.05;;;12.50;99.90;;;;;;5026086;28;20095;-78
2022/05/10 04:31:40;;;;;;;12.23;7.32;;;12.50;99.90;;;;;;5026640;28;20034;-78
2022/05/10 04:34:06;;;;;;;12.98;8.07;;;12.60;99.90;;;;;;5023777;28;20689;-79
2022/05/10 04:36:31;;;;;;;11.73;6.93;;;12.60;99.90;;;;;;5024609;28;20057;-78
2022/05/10 04:38:57;;;;;;;11.55;7.03;;;12.60;99.90;;;;;;5026581;28;20108;-78
2022/05/10 04:41:30;;;;;;;11.00;6.57;;;12.60;99.90;;;;;;5023833;28;20641;-79
2022/05/10 04:44:03;;;;;;;12.90;7.10;;;12.70;99.90;;;;;;5025817;28;20132;-79
2022/05/10 04:46:30;;;;;;;8.45;6.78;;;12.70;99.90;;;;;;5026370;28;20052;-79
2022/05/10 04:48:57;;;;;;;13.68;7.55;;;12.70;99.90;;;;;;5024520;28;20053;-79
2022/05/10 04:51:24;;;;;;;16.35;6.80;;;12.80;99.90;;;;;;5026123;28;20041;-79
2022/05/10 04:53:49;;;;;;;13.20;7.43;;;12.80;99.90;;;;;;5026821;28;20402;-79
2022/05/10 04:56:15;;;;;;;12.27;8.15;;;12.80;99.90;;;;;;5025608;28;20058;-78
2022/05/10 04:58:41;;;;;;;19.02;7.95;;;12.90;99.90;;;;;;5026011;28;20049;-79
2022/05/10 05:01:09;;;;;;;11.32;7.82;;;12.90;99.90;;;;;;5026094;28;20573;-78
2022/05/10 05:03:35;;;;;;;12.63;8.55;;;12.90;99.90;;;;;;5026105;28;20116;-78
2022/05/10 05:06:02;;;;;;;18.90;8.30;;;13.00;99.90;;;;;;5024674;28;20045;-79
2022/05/10 05:08:27;;;;;;;18.40;9.35;;;13.00;99.90;;;;;;5024758;28;20550;-78
2022/05/10 05:10:56;;;;;;;11.57;7.80;;;13.00;99.90;;;;;;5024259;28;20045;-78
2022/05/10 05:13:24;;;;;;;14.65;8.00;;;13.10;99.90;;;;;;5023357;28;20076;-78
2022/05/10 05:15:50;;;;;;;18.70;7.90;;;13.10;99.90;;;;;;5024115;28;20042;-78
2022/05/10 05:18:16;;;;;;;12.57;8.18;;;13.20;99.90;;;;;;5025853;28;20059;-78
2022/05/10 05:20:42;;;;;;;16.80;9.45;;;13.20;99.90;;;;;;5025824;28;20049;-78
2022/05/10 05:23:10;;;;;;;12.68;8.02;;;13.20;99.90;;;;;;5021598;28;20037;-78
2022/05/10 05:25:41;;;;;;;12.95;8.32;;;13.30;99.90;;;;;;5026158;28;20420;-78
2022/05/10 05:28:08;;;;;;;15.45;8.07;;;13.30;99.90;;;;;;5023141;28;20041;-78
2022/05/10 05:30:34;;;;;;;15.95;9.38;;;13.30;99.90;;;;;;5024091;28;20041;-78
2022/05/10 05:33:00;;;;;;;15.15;8.82;;;13.40;99.90;;;;;;5022460;28;20357;-79
2022/05/10 05:35:26;;;;;;;12.38;8.35;;;13.40;99.90;;;;;;5025251;28;21331;-78
2022/05/10 05:37:54;;;;;;;12.65;8.77;;;13.50;99.90;;;;;;5022646;28;20050;-79
2022/05/10 05:40:21;;;;;;;10.05;8.38;;;13.50;99.90;;;;;;5023030;28;20075;-78
2022/05/10 05:42:47;;;;;;;11.63;8.45;;;13.60;99.90;;;;;;5024947;28;20444;-78
2022/05/10 05:45:18;;;;;;;12.82;8.75;;;13.60;99.90;;;;;;5024663;28;20080;-78
2022/05/10 05:47:44;;;;;;;12.73;8.00;;;13.70;99.90;;;;;;5024832;28;20052;-78
2022/05/10 05:50:14;;;;;;;13.13;8.65;;;13.70;99.90;;;;;;5024650;28;20057;-78
2022/05/10 05:52:40;;;;;;;13.10;8.50;;;14.20;99.90;;;;;;5025459;28;20034;-78
2022/05/10 05:55:08;;;;;;;19.90;9.20;;;14.40;99.90;;;;;;5022601;28;20133;-79
2022/05/10 05:57:34;;;;;;;16.23;8.30;;;13.90;99.90;;;;;;5022483;28;20175;-79
2022/05/10 06:00:00;;;;;;;13.68;8.02;;;14.00;99.90;;;;;;5016115;28;20133;-79
2022/05/10 06:02:27;;;;;;;15.50;9.02;;;14.00;99.90;;;;;;5025560;28;20180;-78
2022/05/10 06:04:53;;;;;;;14.18;8.13;;;14.10;99.90;;;;;;5025476;28;20389;-78
2022/05/10 06:07:19;;;;;;;13.85;8.30;;;14.30;99.90;;;;;;5022928;28;20073;-78
2022/05/10 06:09:47;;;;;;;17.17;8.40;;;14.30;99.90;;;;;;5025731;28;20116;-78
2022/05/10 06:12:18;;;;;;;16.80;8.20;;;14.40;99.90;;;;;;5023995;28;20052;-79
2022/05/10 06:14:47;;;;;;;14.52;8.05;;;14.60;99.90;;;;;;5023918;28;20130;-79
2022/05/10 06:17:14;;;;;;;14.30;7.95;;;14.70;99.90;;;;;;5024391;28;20128;-79
2022/05/10 06:19:41;;;;;;;13.77;7.80;;;14.80;99.90;;;;;;5024805;28;20034;-79
2022/05/10 06:22:09;;;;;;;12.82;7.50;;;15.00;99.90;;;;;;5024976;28;20041;-79
2022/05/10 06:24:34;;;;;;;9.80;7.50;;;15.10;99.90;;;;;;5022189;28;20307;-78
2022/05/10 06:27:02;;;;;;;15.75;8.13;;;15.30;99.90;;;;;;5023974;28;20475;-78
2022/05/10 06:29:28;;;;;;;11.25;7.18;;;15.40;99.90;;;;;;5024194;28;20504;-79
2022/05/10 06:31:54;;;;;;;12.00;7.00;;;15.60;99.90;;;;;;5023954;28;20049;-79
2022/05/10 06:34:19;;;;;;;14.85;7.20;;;15.70;99.90;;;;;;5020415;28;20096;-79
2022/05/10 06:36:48;;;;;;;11.00;8.10;;;15.90;99.90;;;;;;5021181;28;20480;-77
2022/05/10 06:39:13;;;;;;;14.02;7.35;;;16.10;99.90;;;;;;5020868;28;20029;-79
2022/05/10 06:41:39;;;;;;;12.65;8.00;;;16.30;99.90;;;;;;5022174;28;20487;-79
2022/05/10 06:44:05;;;;;;;10.02;6.95;;;16.40;99.90;;;;;;5022063;28;20488;-79
2022/05/10 06:46:34;;;;;;;12.90;7.40;;;16.60;99.90;;;;;;5024435;28;20042;-79
2022/05/10 06:49:01;;;;;;;13.25;7.38;;;16.70;99.90;;;;;;5022226;28;20042;-79
2022/05/10 06:51:28;;;;;;;8.38;7.32;;;16.80;99.90;;;;;;5024618;28;20076;-78
2022/05/10 06:53:54;;;;;;;13.68;7.35;;;16.90;99.90;;;;;;5021879;28;20041;-78
2022/05/10 06:56:20;;;;;;;9.90;7.03;;;17.00;99.90;;;;;;5020661;28;20124;-78
2022/05/10 06:58:46;;;;;;;10.60;6.63;;;17.10;99.90;;;;;;5023593;28;20098;-79
2022/05/10 07:01:12;;;;;;;10.10;5.65;;;17.10;99.90;;;;;;5020519;28;20054;-79
2022/05/10 07:03:48;;;;;;;11.05;5.18;;;17.30;99.90;;;;;;5024807;28;20087;-79
2022/05/10 07:06:20;;;;;;;9.02;5.75;;;17.30;99.90;;;;;;5020940;28;20136;-78
2022/05/10 07:08:45;;;;;;;8.95;5.72;;;17.40;99.90;;;;;;5021959;28;20037;-79
2022/05/10 07:11:12;;;;;;;10.98;5.85;;;17.50;99.90;;;;;;5021713;28;20069;-79
2022/05/10 07:13:38;;;;;;;12.85;5.43;;;17.50;99.90;;;;;;5024949;28;20077;-78
2022/05/10 07:16:04;;;;;;;6.93;4.53;;;17.60;99.90;;;;;;5022350;28;20080;-78
2022/05/10 07:18:30;;;;;;;7.85;4.68;;;17.70;99.90;;;;;;5024449;28;20041;-79
2022/05/10 07:20:55;;;;;;;6.30;4.63;;;17.80;99.90;;;;;;5023167;28;20052;-78
2022/05/10 07:23:23;;;;;;;5.03;4.47;;;17.90;99.90;;;;;;5023021;28;20046;-78
2022/05/10 07:25:49;;;;;;;6.47;5.05;;;18.00;99.90;;;;;;5023017;28;20564;-79
2022/05/10 07:28:16;;;;;;;8.25;4.55;;;18.10;99.90;;;;;;5023358;28;20476;-78
2022/05/10 07:30:41;;;;;;;11.48;4.95;;;18.20;99.90;;;;;;5023171;28;20137;-79
2022/05/10 07:33:07;;;;;;;12.77;6.30;;;18.30;99.90;;;;;;5022187;28;20112;-80
2022/05/10 07:38:19;;;;;;;10.18;5.60;;;18.60;99.90;;;;;;5021903;28;20046;-79
2022/05/10 07:40:47;;;;;;;9.90;5.80;;;18.70;99.90;;;;;;5022197;28;20057;-77
2022/05/10 07:43:14;;;;;;;15.30;6.40;;;18.80;99.90;;;;;;5021489;28;20050;-78
2022/05/10 07:45:47;;;;;;;12.00;5.40;;;18.80;99.90;;;;;;5020711;28;20404;-78
2022/05/10 07:48:13;;;;;;;7.55;5.40;;;18.90;99.90;;;;;;5020393;28;20507;-79
2022/05/10 07:50:42;;;;;;;8.95;5.38;;;18.80;99.90;;;;;;5023569;28;20042;-77
2022/05/10 07:53:12;;;;;;;6.93;5.18;;;18.80;99.90;;;;;;5031177;28;20033;-78
2022/05/10 07:55:39;;;;;;;14.02;6.43;;;18.80;99.90;;;;;;5026820;28;20057;-77
2022/05/10 07:58:06;;;;;;;11.88;5.10;;;18.70;99.90;;;;;;5024806;28;20455;-77
2022/05/10 08:00:33;;;;;;;9.50;5.93;;;18.70;99.90;;;;;;5027086;28;20041;-78
2022/05/10 08:02:59;;;;;;;10.05;5.05;;;18.70;99.90;;;;;;5026970;28;20380;-78
2022/05/10 08:05:26;;;;;;;13.05;5.50;;;18.80;99.90;;;;;;5027686;28;20038;-78
2022/05/10 08:07:52;;;;;;;8.60;5.35;;;18.80;99.90;;;;;;5027388;28;20141;-78
2022/05/10 08:10:19;;;;;;;11.70;5.07;;;18.80;99.90;;;;;;5028110;28;20132;-77
2022/05/10 08:12:45;;;;;;;10.32;5.13;;;18.90;99.90;;;;;;5026790;28;20095;-77
2022/05/10 08:15:11;;;;;;;7.40;4.93;;;18.90;99.90;;;;;;5026514;28;20582;-78
2022/05/10 08:17:37;;;;;;;16.35;4.93;;;19.00;99.90;;;;;;5025369;28;20087;-76
2022/05/10 08:20:05;;;;;;;6.88;4.22;;;19.00;99.90;;;;;;5025554;28;20392;-75
2022/05/10 08:22:31;;;;;;;8.43;4.32;;;19.10;99.90;;;;;;5026711;28;20051;-74
2022/05/10 08:24:57;;;;;;;10.90;4.90;;;19.20;99.90;;;;;;5027444;28;20128;-70
2022/05/10 08:27:23;;;;;;;10.05;5.07;;;19.20;99.90;;;;;;5026652;28;20041;-78
2022/05/10 08:29:48;;;;;;;5.05;4.03;;;19.30;99.90;;;;;;5028185;28;20099;-79
2022/05/10 08:32:14;;;;;;;10.90;4.22;;;19.40;99.90;;;;;;5026091;28;20072;-78
2022/05/10 08:34:39;;;;;;;9.77;4.65;;;19.50;99.90;;;;;;5027152;28;20365;-78
2022/05/10 08:37:06;;;;;;;11.07;4.20;;;19.60;99.90;;;;;;5017953;28;20121;-79
2022/05/10 08:39:45;;;;;;;8.15;3.58;;;20.10;99.90;;;;;;5027092;28;20456;-79
2022/05/10 08:42:19;;;;;;;6.35;3.90;;;21.20;99.90;;;;;;5025071;28;20053;-79
2022/05/10 08:44:51;;;;;;;5.78;3.80;;;20.00;99.90;;;;;;5022875;28;20515;-79
2022/05/10 08:47:17;;;;;;;10.45;3.78;;;20.00;99.90;;;;;;5024103;28;20426;-79
2022/05/10 08:50:03;;;;;;;9.68;4.03;;;20.00;99.90;;;;;;5025902;28;20067;-80
2022/05/10 08:52:32;;;;;;;8.95;3.63;;;20.00;99.90;;;;;;5018015;28;20041;-80
2022/05/10 08:54:59;;;;;;;6.18;3.67;;;20.10;99.90;;;;;;5024002;28;20048;-80
2022/05/10 08:57:35;;;;;;;8.25;4.15;;;20.10;99.90;;;;;;5023154;28;20380;-83
2022/05/10 09:00:07;;;;;;;10.05;4.00;;;20.10;99.90;;;;;;5025823;28;20136;-81
2022/05/10 09:02:44;;;;;;;10.02;4.03;;;20.20;99.90;;;;;;5022474;28;20064;-82
2022/05/10 09:05:22;;;;;;;7.05;3.50;;;20.30;99.90;;;;;;5020964;28;20184;-81
2022/05/10 09:08:07;;;;;;;11.45;3.58;;;20.30;99.90;;;;;;5025725;28;20052;-79
2022/05/10 09:10:37;;;;;;;6.28;3.95;;;20.40;99.90;;;;;;5008180;28;20488;-80
2022/05/10 09:13:06;;;;;;;5.90;3.60;;;20.40;99.90;;;;;;5021668;28;20041;-80
2022/05/10 09:15:45;;;;;;;9.77;3.58;;;20.40;99.90;;;;;;5027123;28;20786;-80
2022/05/10 09:18:19;;;;;;;5.95;3.92;;;20.40;99.90;;;;;;5028065;28;20151;-80
2022/05/10 09:21:23;;;;;;;6.15;3.08;;;20.40;99.90;;;;;;5025516;28;20042;-79
2022/05/10 09:24:07;;;;;;;8.15;3.08;;;20.50;99.90;;;;;;5025970;28;20507;-80
2022/05/10 09:26:39;;;;;;;5.22;3.22;;;20.60;99.90;;;;;;5026974;28;20103;-80
2022/05/10 09:29:29;;;;;;;4.80;3.70;;;20.70;99.90;;;;;;5026847;28;20037;-80
2022/05/10 09:34:47;;;;;;;11.32;3.47;;;20.90;99.90;;;;;;5026438;28;20084;-80
2022/05/10 09:37:24;;;;;;;;;;;20.90;99.90;;;;;;5021430;28;20391;-79
2022/05/10 09:40:23;;;;;;;5.28;2.70;;;21.10;99.90;;;;;;5023354;28;19931;-78
2022/05/10 09:42:51;;;;;;;6.63;3.47;;;21.30;99.50;;;;;;5015623;28;20418;-79
2022/05/10 09:45:21;;;;;;;7.22;3.75;;;21.50;98.70;;;;;;5021290;28;20091;-78
2022/05/10 09:48:02;;;;;;;8.45;4.10;;;21.70;96.40;;;;;;5026142;28;20037;-77
2022/05/10 09:50:32;;;;;;;5.65;3.92;;;21.80;97.30;;;;;;5026051;28;20046;-78
2022/05/10 09:53:30;;;;;;;6.93;4.28;;;21.80;96.20;;;;;;5025643;28;20037;-76
2022/05/10 09:56:00;;;;;;;6.72;4.13;;;21.70;96.10;;;;;;5023126;28;20615;-77
2022/05/10 09:59:03;;;;;;;5.88;4.10;;;21.60;95.50;;;;;;5024863;28;20076;-81
2022/05/10 10:01:42;;;;;;;5.47;3.88;;;21.60;93.40;;;;;;4983805;28;20088;-80
2022/05/10 10:04:31;;;;;;;7.30;4.30;;;21.60;95.00;;;;;;5024948;28;20120;-79
2022/05/10 10:07:08;;;;;;;9.07;4.35;;;21.60;94.10;;;;;;5020660;28;20076;-80
2022/05/10 10:09:38;;;;;;;16.15;4.90;;;21.60;95.50;;;;;;5024523;28;20038;-80
2022/05/10 10:12:14;;;;;;;9.30;4.05;;;21.60;96.50;;;;;;5023066;28;20391;-80
2022/05/10 10:14:49;;;;;;;10.65;4.35;;;21.60;97.20;;;;;;5018950;28;20049;-81
2022/05/10 10:17:37;;;;;;;7.53;4.22;;;21.60;97.70;;;;;;5018416;28;20064;-80
2022/05/10 10:20:16;;;;;;;5.57;4.25;;;21.60;97.60;;;;;;5018380;28;20045;-78
2022/05/10 10:22:47;;;;;;;7.15;5.05;;;21.80;97.60;;;;;;5018843;28;20057;-78
2022/05/10 10:25:43;;;;;;;9.07;5.10;;;21.90;96.80;;;;;;5028917;28;20083;-78
2022/05/10 10:28:45;;;;;;;8.82;4.78;;;21.90;95.70;;;;;;5025621;28;20041;-80
2022/05/10 10:31:18;;;;;;;10.38;4.95;;;22.00;93.40;;;;;;5016378;28;20132;-80
2022/05/10 10:33:52;;;;;;;36.78;9.27;;;21.90;93.50;;;;;;5022070;28;20037;-82
2022/05/10 10:36:23;;;;;;;14.98;4.78;;;21.90;92.50;;;;;;5032080;28;20557;-80
2022/05/10 10:38:55;;;;;;;12.20;6.20;;;21.90;92.80;;;;;;5020136;28;20056;-80
2022/05/10 10:41:35;;;;;;;9.13;5.82;;;21.90;92.50;;;;;;5023061;28;20064;-81
2022/05/10 10:44:09;;;;;;;12.85;4.40;;;21.90;93.20;;;;;;5025244;28;20045;-80
2022/05/10 10:46:44;;;;;;;12.63;5.50;;;21.90;92.80;;;;;;5024159;28;20474;-81
2022/05/10 10:49:18;;;;;;;9.55;4.97;;;21.90;92.80;;;;;;5026310;28;20049;-80
2022/05/10 10:51:44;;;;;;;9.75;5.28;;;21.90;91.70;;;;;;5021248;28;20061;-81
2022/05/10 10:54:23;;;;;;;10.52;4.43;;;21.70;89.90;;;;;;5014955;28;20045;-80
2022/05/10 10:57:12;;;;;;;9.85;4.60;;;22.10;88.60;;;;;;5016903;28;20261;-81
2022/05/10 10:59:52;;;;;;;5.35;3.67;;;21.70;88.40;;;;;;5023398;28;20144;-80
2022/05/10 11:02:36;;;;;;;12.00;3.72;;;21.60;89.10;;;;;;5025287;28;20640;-76
2022/05/10 11:05:28;;;;;;;3.63;3.00;;;21.40;88.90;;;;;;5024295;28;20099;-76
2022/05/10 11:08:20;;;;;;;5.90;3.50;;;21.40;86.30;;;;;;5019183;28;20045;-77
2022/05/10 11:11:30;;;;;;;6.68;3.63;;;21.30;86.20;;;;;;5014210;28;20053;-78
2022/05/10 11:14:11;;;;;;;7.20;3.63;;;21.50;90.40;;;;;;5023663;28;20626;-77
2022/05/10 11:17:02;;;;;;;8.27;3.85;;;21.30;91.10;;;;;;5028777;28;20049;-76
2022/05/10 11:19:43;;;;;;;5.55;3.97;;;21.30;92.50;;;;;;5023281;28;20045;-77
2022/05/10 11:22:14;;;;;;;8.65;4.82;;;21.30;91.40;;;;;;5024145;28;20045;-77
2022/05/10 11:25:07;;;;;;;9.07;5.45;;;21.40;90.50;;;;;;5024989;28;20042;-77
2022/05/10 11:27:41;;;;;;;13.77;6.10;;;21.40;90.60;;;;;;5028202;28;20482;-75
2022/05/10 11:30:19;;;;;;;10.50;5.72;;;21.40;90.80;;;;;;5027817;28;20057;-75
2022/05/10 11:33:11;;;;;;;8.30;5.85;;;21.40;92.30;;;;;;5021250;28;20038;-77
2022/05/10 11:36:15;;;;;;;9.68;6.25;;;21.50;92.80;;;;;;5018577;28;20527;-77
2022/05/10 11:39:00;;;;;;;7.65;5.80;;;21.50;93.30;;;;;;5027696;28;20049;-79
2022/05/10 11:41:47;;;;;;;11.18;7.35;;;21.60;93.40;;;;;;5035038;28;20543;-80
2022/05/10 11:44:28;;;;;;;12.60;6.63;;;21.60;92.90;;;;;;5041039;28;20369;-79
2022/05/10 11:46:57;;;;;;;15.35;6.88;;;21.70;95.50;;;;;;5024776;28;20166;-78
2022/05/10 11:49:52;;;;;;;9.95;6.03;;;21.80;94.50;;;;;;5029023;28;20048;-78
2022/05/10 11:52:51;;;;;;;9.05;6.40;;;21.90;95.50;;;;;;5025837;28;20081;-77
2022/05/10 11:55:44;;;;;;;23.85;8.75;;;22.10;96.00;;;;;;5024583;28;20056;-78
2022/05/10 11:58:10;;;;;;;12.70;8.05;;;22.40;94.70;;;;;;5026390;28;20180;-75
2022/05/10 12:00:52;;;;;;;12.30;8.60;;;22.50;94.90;;;;;;5018600;28;20144;-74
2022/05/10 12:03:36;;;;;;;11.05;7.78;;;22.50;93.90;;;;;;5026558;28;20132;-75
2022/05/10 12:06:33;;;;;;;16.60;5.65;;;22.40;90.40;;;;;;5026960;28;20060;-74
2022/05/10 12:09:01;;;;;;;15.55;4.90;;;22.30;90.80;;;;;;5015008;28;20060;-76
2022/05/10 12:11:33;;;;;;;9.13;4.93;;;22.20;91.50;;;;;;5027480;28;20510;-75
2022/05/10 12:23:00;;;;;;;6.70;3.58;;;22.50;92.80;;;;;;5027262;28;20111;-76
2022/05/10 12:25:51;;;;;;;5.38;3.05;;;22.70;91.70;;;;;;5026853;28;20527;-75
2022/05/10 12:28:43;;;;;;;10.07;4.18;;;22.80;91.60;;;;;;5022110;28;20057;-76
2022/05/10 12:31:25;;;;;;;10.27;4.18;;;22.70;90.40;;;;;;5023262;28;20057;-75
2022/05/10 12:34:02;;;;;;;7.05;3.30;;;22.50;89.40;;;;;;5014156;28;20046;-75
2022/05/10 12:36:33;;;;;;;9.63;3.38;;;22.40;90.90;;;;;;5013286;28;20049;-75
2022/05/10 12:39:25;;;;;;;7.43;2.85;;;22.30;88.90;;;;;;5015261;28;20050;-75
2022/05/10 12:41:58;;;;;;;;;;;22.20;87.60;;;;;;5012230;28;20050;-76
2022/05/10 12:44:55;;;;;;;4.22;2.25;;;22.10;81.10;;;;;;5024852;28;19925;-75
2022/05/10 12:47:31;;;;;;;10.95;3.15;;;22.00;77.70;;;;;;5022434;28;20133;-75
2022/05/10 12:50:12;;;;;;;10.75;2.40;;;22.00;77.80;;;;;;5020802;28;20499;-76
2022/05/10 12:52:43;;;;;;;6.50;2.60;;;22.00;75.60;;;;;;5026239;28;20045;-76
2022/05/10 12:55:16;;;;;;;6.30;3.00;;;21.90;75.70;;;;;;5025242;28;20300;-76
2022/05/10 12:58:14;;;;;;;4.40;2.35;;;22.10;76.60;;;;;;5026682;28;20053;-75
2022/05/10 13:00:54;;;;;;;5.95;2.95;;;21.80;78.40;;;;;;5021763;28;20680;-76
2022/05/10 13:03:34;;;;;;;6.82;2.38;;;21.70;79.40;;;;;;5019153;28;20103;-75
2022/05/10 13:06:05;;;;;;;6.68;2.20;;;21.80;79.00;;;;;;5026897;28;20049;-75
2022/05/10 13:08:50;;;;;;;10.00;1.90;;;21.70;76.40;;;;;;5025018;28;20097;-75
2022/05/10 13:11:19;;;;;;;8.32;1.55;;;21.60;73.20;;;;;;5018981;28;20061;-75
2022/05/10 13:13:46;;;;;;;5.18;1.20;;;21.40;72.00;;;;;;5018889;28;20552;-75
2022/05/10 13:16:17;;;;;;;4.53;1.17;;;21.30;68.10;;;;;;5012998;28;20099;-76
2022/05/10 13:18:46;;;;;;;7.68;0.98;;;21.30;66.20;;;;;;5013452;28;20052;-75
2022/05/10 13:21:12;;;;;;;4.20;1.00;;;21.20;62.50;;;;;;5012888;28;20050;-76
2022/05/10 13:23:39;;;;;;;3.83;0.90;;;21.10;59.20;;;;;;5023092;28;20046;-76
2022/05/10 13:26:10;;;;;;;1.70;0.82;;;21.00;57.30;;;;;;5024508;28;20171;-75